createdAt,value
2023-05-10T00:00:05.640Z,102.56
2023-05-10T00:01:05.639Z,98.28
2023-05-10T00:02:05.722Z,100.47
2023-05-10T00:03:05.754Z,97.21
2023-05-10T00:04:05.767Z,100.43
2023-05-10T00:05:05.681Z,100.60
2023-05-10T00:06:05.677Z,100.29
2023-05-10T00:07:05.667Z,101.03
2023-05-10T00:08:05.670Z,101.27
2023-05-10T00:09:05.648Z,98.09
2023-05-10T00:10:05.632Z,104.82
2023-05-10T00:11:05.623Z,104.98
2023-05-10T00:12:05.609Z,103.15
2023-05-10T00:13:05.632Z,99.98
2023-05-10T00:14:05.574Z,103.35
2023-05-10T00:15:05.564Z,100.70
2023-05-10T00:16:05.562Z,102.90
2023-05-10T00:17:05.533Z,97.20
2023-05-10T00:18:05.597Z,97.93
2023-05-10T00:19:05.522Z,97.18
2023-05-10T00:20:05.573Z,98.30
2023-05-10T00:21:05.484Z,99.41
2023-05-10T00:22:05.475Z,96.00
2023-05-10T00:23:05.462Z,101.13
2023-05-10T00:24:05.441Z,99.09
2023-05-10T00:25:05.434Z,99.44
2023-05-10T00:26:05.431Z,97.65
2023-05-10T00:27:05.404Z,97.79
2023-05-10T00:28:05.408Z,99.45
2023-05-10T00:29:05.374Z,97.23
2023-05-10T00:30:05.380Z,97.44
2023-05-10T00:31:05.361Z,97.57
2023-05-10T00:32:05.369Z,98.26
2023-05-10T00:33:05.391Z,99.56
2023-05-10T00:34:05.320Z,100.96
2023-05-10T00:35:05.331Z,100.45
2023-05-10T00:36:05.334Z,98.24
2023-05-10T00:37:05.290Z,99.02
2023-05-10T00:38:05.279Z,96.55
2023-05-10T00:39:05.262Z,100.30
2023-05-10T00:40:05.261Z,99.06
2023-05-10T00:41:05.234Z,99.18
2023-05-10T00:42:05.239Z,99.93
2023-05-10T00:43:05.228Z,99.61
2023-05-10T00:44:05.212Z,97.51
2023-05-10T00:45:05.197Z,92.49
2023-05-10T00:46:05.250Z,96.49
2023-05-10T00:47:05.170Z,97.04
2023-05-10T00:48:05.375Z,97.75
2023-05-10T00:49:05.151Z,98.27
2023-05-10T00:50:05.139Z,90.62
2023-05-10T00:51:05.140Z,94.70
2023-05-10T00:52:05.106Z,94.62
2023-05-10T00:53:05.100Z,94.01
2023-05-10T00:54:05.099Z,94.08
2023-05-10T00:55:05.082Z,94.27
2023-05-10T00:56:05.080Z,94.77
2023-05-10T00:57:05.060Z,94.81
2023-05-10T00:58:05.051Z,87.61
2023-05-10T00:59:05.102Z,93.32
2023-05-10T01:00:05.100Z,93.27
2023-05-10T01:01:05.171Z,91.03
2023-05-10T01:02:05.199Z,90.99
2023-05-10T01:03:05.243Z,89.78
2023-05-10T01:04:05.195Z,93.60
2023-05-10T01:05:05.231Z,89.73
2023-05-10T01:06:05.238Z,88.80
2023-05-10T01:07:05.268Z,91.97
2023-05-10T01:08:05.314Z,91.02
2023-05-10T01:09:05.327Z,91.27
2023-05-10T01:10:05.318Z,91.47
2023-05-10T01:11:05.276Z,91.68
2023-05-10T01:12:05.317Z,92.56
2023-05-10T01:13:05.341Z,88.28
2023-05-10T01:14:05.272Z,91.93
2023-05-10T01:15:05.240Z,85.86
2023-05-10T01:16:05.262Z,87.30
2023-05-10T01:17:05.209Z,92.64
2023-05-10T01:18:05.210Z,92.38
2023-05-10T01:19:05.192Z,93.44
2023-05-10T01:20:05.200Z,90.10
2023-05-10T01:21:05.172Z,89.60
2023-05-10T01:22:05.160Z,91.59
2023-05-10T01:23:05.149Z,90.49
2023-05-10T01:24:05.139Z,87.16
2023-05-10T01:25:05.134Z,86.35
2023-05-10T01:26:05.107Z,85.54
2023-05-10T01:27:05.135Z,86.80
2023-05-10T01:28:05.174Z,82.75
2023-05-10T01:29:05.228Z,85.01
2023-05-10T01:30:13.983Z,84.21
2023-05-10T01:31:06.313Z,84.33
2023-05-10T01:32:05.208Z,85.04
2023-05-10T01:33:05.242Z,86.40
2023-05-10T01:34:05.183Z,85.17
2023-05-10T01:35:05.176Z,82.52
2023-05-10T01:36:05.169Z,84.13
2023-05-10T01:37:05.174Z,80.92
2023-05-10T01:38:05.152Z,81.89
2023-05-10T01:39:05.126Z,82.32
2023-05-10T01:40:05.165Z,80.75
2023-05-10T01:41:05.093Z,86.65
2023-05-10T01:42:05.093Z,84.89
2023-05-10T01:43:05.088Z,85.02
2023-05-10T01:44:05.084Z,86.91
2023-05-10T01:45:05.061Z,84.09
2023-05-10T01:46:05.061Z,87.78
2023-05-10T01:47:05.121Z,81.17
2023-05-10T01:48:05.170Z,88.11
2023-05-10T01:49:05.141Z,88.71
2023-05-10T01:50:05.171Z,87.42
2023-05-10T01:51:05.230Z,85.36
2023-05-10T01:52:05.242Z,88.59
2023-05-10T01:53:05.270Z,85.17
2023-05-10T01:54:05.306Z,79.61
2023-05-10T01:55:05.339Z,88.44
2023-05-10T01:56:05.377Z,87.65
2023-05-10T01:57:05.404Z,85.93
2023-05-10T01:58:05.430Z,83.94
2023-05-10T01:59:05.473Z,85.31
2023-05-10T02:00:05.502Z,87.82
2023-05-10T02:01:05.576Z,83.80
2023-05-10T02:02:05.569Z,81.94
2023-05-10T02:03:05.675Z,84.98
2023-05-10T02:04:05.755Z,84.37
2023-05-10T02:05:05.684Z,84.50
2023-05-10T02:06:05.695Z,81.55
2023-05-10T02:07:05.690Z,81.90
2023-05-10T02:08:05.679Z,81.06
2023-05-10T02:09:05.679Z,82.71
2023-05-10T02:10:05.671Z,81.62
2023-05-10T02:11:05.653Z,86.52
2023-05-10T02:12:05.657Z,79.97
2023-05-10T02:13:05.688Z,84.46
2023-05-10T02:14:05.651Z,86.65
2023-05-10T02:15:05.636Z,86.50
2023-05-10T02:16:05.679Z,87.36
2023-05-10T02:17:05.612Z,88.49
2023-05-10T02:18:05.653Z,86.86
2023-05-10T02:19:05.592Z,85.05
2023-05-10T02:20:05.588Z,82.55
2023-05-10T02:21:05.571Z,88.27
2023-05-10T02:22:05.608Z,85.08
2023-05-10T02:23:05.661Z,85.35
2023-05-10T02:24:05.714Z,85.56
2023-05-10T02:25:05.758Z,85.13
2023-05-10T02:26:05.811Z,86.24
2023-05-10T02:27:05.854Z,82.59
2023-05-10T02:28:05.901Z,86.30
2023-05-10T02:29:05.948Z,85.35
2023-05-10T02:30:05.992Z,85.57
2023-05-10T02:31:06.054Z,83.04
2023-05-10T02:32:06.126Z,85.90
2023-05-10T02:33:06.189Z,85.79
2023-05-10T02:34:06.205Z,84.60
2023-05-10T02:35:06.242Z,84.14
2023-05-10T02:36:06.288Z,83.84
2023-05-10T02:37:06.341Z,87.27
2023-05-10T02:38:06.384Z,88.59
2023-05-10T02:39:06.444Z,83.94
2023-05-10T02:40:06.492Z,85.91
2023-05-10T02:41:06.550Z,87.21
2023-05-10T02:42:06.595Z,87.02
2023-05-10T02:43:06.640Z,87.54
2023-05-10T02:44:06.686Z,87.92
2023-05-10T02:45:06.744Z,89.67
2023-05-10T02:46:06.806Z,85.67
2023-05-10T02:47:06.853Z,83.94
2023-05-10T02:48:06.925Z,86.40
2023-05-10T02:49:06.946Z,85.59
2023-05-10T02:50:06.982Z,87.11
2023-05-10T02:51:07.046Z,84.21
2023-05-10T02:52:07.096Z,85.02
2023-05-10T02:53:07.151Z,83.75
2023-05-10T02:54:07.194Z,87.42
2023-05-10T02:55:07.250Z,87.50
2023-05-10T02:56:07.296Z,86.24
2023-05-10T02:57:07.342Z,84.66
2023-05-10T02:58:07.400Z,83.12
2023-05-10T02:59:07.456Z,83.58
2023-05-10T03:00:07.504Z,86.24
2023-05-10T03:01:07.580Z,83.97
2023-05-10T03:02:07.607Z,83.57
2023-05-10T03:03:07.758Z,81.37
2023-05-10T03:04:07.761Z,81.75
2023-05-10T03:05:07.758Z,84.09
2023-05-10T03:06:07.813Z,83.35
2023-05-10T03:07:07.859Z,82.97
2023-05-10T03:08:08.031Z,82.19
2023-05-10T03:09:07.979Z,82.40
2023-05-10T03:10:08.020Z,81.61
2023-05-10T03:11:08.065Z,82.28
2023-05-10T03:12:08.075Z,82.44
2023-05-10T03:13:08.088Z,82.79
2023-05-10T03:14:08.050Z,83.17
2023-05-10T03:15:08.090Z,84.85
2023-05-10T03:16:08.049Z,84.69
2023-05-10T03:17:08.048Z,84.32
2023-05-10T03:18:08.066Z,82.01
2023-05-10T03:19:08.033Z,83.83
2023-05-10T03:20:08.024Z,83.94
2023-05-10T03:21:08.015Z,84.11
2023-05-10T03:22:08.014Z,85.59
2023-05-10T03:23:08.062Z,82.59
2023-05-10T03:24:08.141Z,83.70
2023-05-10T03:25:08.175Z,81.35
2023-05-10T03:26:08.230Z,80.67
2023-05-10T03:27:08.317Z,80.32
2023-05-10T03:28:08.332Z,84.05
2023-05-10T03:29:08.386Z,81.76
2023-05-10T03:30:08.435Z,82.35
2023-05-10T03:31:08.584Z,80.86
2023-05-10T03:32:08.536Z,83.75
2023-05-10T03:33:08.652Z,81.76
2023-05-10T03:34:08.655Z,81.36
2023-05-10T03:35:08.715Z,81.19
2023-05-10T03:36:08.737Z,82.65
2023-05-10T03:37:08.789Z,83.06
2023-05-10T03:38:08.854Z,85.01
2023-05-10T03:39:08.904Z,82.99
2023-05-10T03:40:08.981Z,80.68
2023-05-10T03:41:09.018Z,82.04
2023-05-10T03:42:09.060Z,81.63
2023-05-10T03:43:09.113Z,81.80
2023-05-10T03:44:09.209Z,83.28
2023-05-10T03:45:09.221Z,82.39
2023-05-10T03:46:09.266Z,82.05
2023-05-10T03:47:09.416Z,83.06
2023-05-10T03:48:09.398Z,83.28
2023-05-10T03:49:09.325Z,83.42
2023-05-10T03:50:09.308Z,84.16
2023-05-10T03:51:09.301Z,83.61
2023-05-10T03:52:09.294Z,83.04
2023-05-10T03:53:09.299Z,84.05
2023-05-10T03:54:09.294Z,80.07
2023-05-10T03:55:09.277Z,78.49
2023-05-10T03:56:09.295Z,82.02
2023-05-10T03:57:09.265Z,79.16
2023-05-10T03:58:09.266Z,78.74
2023-05-10T03:59:09.316Z,78.52
2023-05-10T04:00:09.352Z,80.37
2023-05-10T04:01:09.409Z,80.74
2023-05-10T04:02:09.523Z,80.50
2023-05-10T04:03:09.574Z,78.93
2023-05-10T04:04:09.636Z,81.24
2023-05-10T04:05:09.609Z,81.47
2023-05-10T04:06:09.684Z,81.17
2023-05-10T04:07:09.723Z,81.87
2023-05-10T04:08:09.794Z,81.53
2023-05-10T04:09:09.854Z,79.16
2023-05-10T04:10:09.881Z,82.05
2023-05-10T04:11:09.934Z,82.51
2023-05-10T04:12:11.086Z,81.77
2023-05-10T04:13:10.059Z,84.81
2023-05-10T04:14:10.078Z,78.70
2023-05-10T04:15:10.115Z,81.30
2023-05-10T04:16:10.153Z,80.95
2023-05-10T04:17:10.341Z,80.26
2023-05-10T04:18:10.307Z,82.03
2023-05-10T04:19:10.313Z,83.56
2023-05-10T04:20:10.299Z,83.63
2023-05-10T04:21:10.296Z,83.90
2023-05-10T04:22:10.294Z,84.12
2023-05-10T04:23:10.289Z,82.33
2023-05-10T04:24:10.282Z,83.29
2023-05-10T04:25:10.274Z,83.00
2023-05-10T04:26:10.270Z,83.56
2023-05-10T04:27:10.263Z,81.00
2023-05-10T04:28:10.252Z,82.79
2023-05-10T04:29:10.278Z,83.66
2023-05-10T04:30:10.247Z,82.13
2023-05-10T04:31:10.271Z,82.30
2023-05-10T04:32:10.284Z,82.53
2023-05-10T04:33:10.250Z,83.39
2023-05-10T04:34:10.229Z,83.62
2023-05-10T04:35:10.248Z,82.91
2023-05-10T04:36:10.221Z,84.28
2023-05-10T04:37:10.220Z,81.41
2023-05-10T04:38:10.197Z,83.05
2023-05-10T04:39:10.193Z,83.14
2023-05-10T04:40:10.191Z,83.08
2023-05-10T04:41:10.237Z,83.34
2023-05-10T04:42:10.235Z,83.61
2023-05-10T04:43:10.299Z,82.95
2023-05-10T04:44:10.338Z,79.67
2023-05-10T04:45:10.401Z,80.77
2023-05-10T04:46:10.469Z,82.16
2023-05-10T04:47:11.997Z,82.45
2023-05-10T04:48:10.530Z,80.20
2023-05-10T04:49:10.583Z,82.07
2023-05-10T04:50:10.621Z,82.16
2023-05-10T04:51:10.671Z,80.10
2023-05-10T04:52:10.732Z,81.09
2023-05-10T04:53:10.767Z,80.58
2023-05-10T04:54:10.820Z,82.29
2023-05-10T04:55:10.902Z,81.74
2023-05-10T04:56:10.903Z,79.65
2023-05-10T04:57:10.943Z,81.82
2023-05-10T04:58:10.997Z,80.86
2023-05-10T04:59:11.044Z,81.05
2023-05-10T05:00:11.088Z,80.25
2023-05-10T05:01:11.117Z,80.40
2023-05-10T05:02:11.062Z,80.64
2023-05-10T05:03:11.189Z,81.86
2023-05-10T05:04:11.059Z,80.47
2023-05-10T05:05:11.036Z,82.52
2023-05-10T05:06:11.039Z,80.82
2023-05-10T05:07:11.028Z,80.34
2023-05-10T05:08:11.024Z,78.46
2023-05-10T05:09:11.028Z,78.17
2023-05-10T05:10:11.013Z,78.49
2023-05-10T05:11:11.009Z,79.22
2023-05-10T05:12:11.033Z,79.66
2023-05-10T05:13:11.095Z,81.26
2023-05-10T05:14:10.999Z,81.63
2023-05-10T05:15:11.008Z,82.14
2023-05-10T05:16:10.987Z,81.76
2023-05-10T05:17:10.992Z,82.02
2023-05-10T05:18:10.998Z,81.96
2023-05-10T05:19:10.978Z,79.38
2023-05-10T05:20:11.027Z,81.98
2023-05-10T05:21:11.051Z,81.24
2023-05-10T05:22:11.127Z,79.15
2023-05-10T05:23:11.161Z,78.70
2023-05-10T05:24:11.218Z,79.80
2023-05-10T05:25:11.258Z,80.39
2023-05-10T05:26:11.309Z,76.29
2023-05-10T05:27:11.335Z,79.02
2023-05-10T05:28:11.385Z,79.71
2023-05-10T05:29:11.451Z,80.46
2023-05-10T05:30:11.493Z,81.80
2023-05-10T05:31:11.614Z,80.89
2023-05-10T05:32:11.625Z,83.90
2023-05-10T05:33:11.710Z,87.71
2023-05-10T05:34:11.685Z,89.97
2023-05-10T05:35:11.753Z,87.89
2023-05-10T05:36:11.768Z,90.44
2023-05-10T05:37:12.644Z,95.45
2023-05-10T05:38:11.872Z,96.33
2023-05-10T05:39:11.947Z,101.78
2023-05-10T05:40:11.971Z,100.79
2023-05-10T05:41:12.043Z,100.74
2023-05-10T05:42:12.049Z,116.49
2023-05-10T05:43:12.154Z,118.42
2023-05-10T05:44:12.188Z,126.27
2023-05-10T05:45:12.210Z,139.84
2023-05-10T05:46:12.338Z,160.64
2023-05-10T05:47:12.328Z,183.20
2023-05-10T05:48:12.428Z,200.10
2023-05-10T05:49:12.420Z,209.44
2023-05-10T05:50:12.467Z,216.44
2023-05-10T05:51:12.496Z,234.47
2023-05-10T05:52:12.539Z,241.24
2023-05-10T05:53:12.584Z,250.00
2023-05-10T05:54:12.656Z,250.11
2023-05-10T05:55:12.650Z,250.00
2023-05-10T05:56:12.697Z,248.00
2023-05-10T05:57:12.724Z,249.03
2023-05-10T05:58:12.765Z,249.54
2023-05-10T05:59:12.809Z,245.30
2023-05-10T06:00:12.795Z,248.19
2023-05-10T06:01:12.835Z,245.69
2023-05-10T06:02:12.893Z,246.21
2023-05-10T06:03:12.874Z,248.70
2023-05-10T06:04:12.812Z,253.88
2023-05-10T06:05:12.819Z,265.83
2023-05-10T06:06:12.774Z,279.53
2023-05-10T06:07:12.824Z,269.29
2023-05-10T06:08:12.774Z,249.18
2023-05-10T06:09:12.753Z,249.64
2023-05-10T06:10:12.743Z,251.24
2023-05-10T06:11:12.747Z,254.08
2023-05-10T06:12:12.750Z,259.14
2023-05-10T06:13:12.809Z,250.01
2023-05-10T06:14:12.686Z,252.73
2023-05-10T06:15:12.804Z,258.79
2023-05-10T06:16:12.744Z,267.80
2023-05-10T06:17:12.730Z,276.50
2023-05-10T06:18:12.694Z,264.60
2023-05-10T06:19:12.659Z,248.31
2023-05-10T06:20:12.652Z,248.52
2023-05-10T06:21:12.626Z,249.46
2023-05-10T06:22:12.656Z,250.97
2023-05-10T06:23:12.603Z,252.71
2023-05-10T06:24:12.603Z,248.79
2023-05-10T06:25:12.623Z,250.23
2023-05-10T06:26:12.560Z,254.03
2023-05-10T06:27:12.606Z,258.71
2023-05-10T06:28:12.624Z,264.86
2023-05-10T06:29:12.534Z,249.11
2023-05-10T06:30:13.665Z,249.32
2023-05-10T06:31:12.527Z,247.86
2023-05-10T06:32:12.501Z,247.96
2023-05-10T06:33:12.560Z,248.11
2023-05-10T06:34:12.474Z,248.32
2023-05-10T06:35:12.553Z,248.89
2023-05-10T06:36:12.547Z,251.62
2023-05-10T06:37:12.446Z,249.31
2023-05-10T06:38:12.419Z,245.84
2023-05-10T06:39:12.424Z,246.62
2023-05-10T06:40:12.464Z,249.92
2023-05-10T06:41:12.382Z,250.00
2023-05-10T06:42:12.425Z,246.02
2023-05-10T06:43:13.142Z,247.55
2023-05-10T06:44:12.328Z,247.65
2023-05-10T06:45:12.360Z,248.11
2023-05-10T06:46:12.359Z,244.02
2023-05-10T06:47:12.304Z,245.77
2023-05-10T06:48:12.343Z,247.34
2023-05-10T06:49:12.253Z,247.38
2023-05-10T06:50:12.462Z,245.49
2023-05-10T06:51:12.233Z,241.50
2023-05-10T06:52:12.247Z,234.47
2023-05-10T06:53:12.269Z,233.19
2023-05-10T06:54:12.211Z,223.75
2023-05-10T06:55:12.209Z,220.89
2023-05-10T06:56:12.166Z,220.34
2023-05-10T06:57:23.437Z,206.19
2023-05-10T06:58:13.128Z,205.90
2023-05-10T06:59:12.127Z,203.14
2023-05-10T07:00:12.194Z,198.43
2023-05-10T07:01:12.195Z,192.42
2023-05-10T07:02:12.254Z,189.40
2023-05-10T07:04:12.057Z,179.19
2023-05-10T07:05:12.077Z,176.02
2023-05-10T07:06:21.585Z,175.65
2023-05-10T07:07:13.020Z,174.03
2023-05-10T07:08:12.001Z,170.35
2023-05-10T07:09:11.994Z,166.93
2023-05-10T07:10:12.011Z,166.61
2023-05-10T07:11:11.949Z,166.88
2023-05-10T07:12:14.751Z,163.38
2023-05-10T07:13:12.006Z,166.63
2023-05-10T07:14:11.937Z,162.52
2023-05-10T07:15:11.935Z,158.48
2023-05-10T07:16:11.973Z,157.04
2023-05-10T07:17:11.949Z,156.01
2023-05-10T07:18:12.109Z,155.18
2023-05-10T07:19:11.877Z,159.43
2023-05-10T07:20:12.001Z,157.26
2023-05-10T07:22:11.852Z,152.56
2023-05-10T07:23:11.837Z,152.83
2023-05-10T07:24:11.845Z,153.00
2023-05-10T07:25:11.844Z,153.06
2023-05-10T07:26:11.831Z,153.32
2023-05-10T07:27:11.778Z,153.51
2023-05-10T07:28:11.790Z,150.15
2023-05-10T07:29:11.777Z,151.75
2023-05-10T07:30:12.195Z,150.67
2023-05-10T07:31:11.750Z,150.44
2023-05-10T07:32:11.759Z,150.84
2023-05-10T07:33:11.753Z,152.61
2023-05-10T07:34:11.696Z,151.71
2023-05-10T07:35:11.686Z,149.99
2023-05-10T07:37:11.662Z,149.79
2023-05-10T07:38:11.655Z,151.36
2023-05-10T07:39:16.239Z,157.91
2023-05-10T07:40:12.646Z,158.06
2023-05-10T07:41:11.627Z,158.52
2023-05-10T07:42:11.635Z,159.35
2023-05-10T07:43:11.614Z,160.88
2023-05-10T07:44:11.633Z,165.42
2023-05-10T07:45:11.601Z,166.08
2023-05-10T07:46:11.643Z,166.03
2023-05-10T07:47:11.565Z,168.64
2023-05-10T07:48:11.555Z,170.75
2023-05-10T07:49:11.610Z,170.90
2023-05-10T07:50:11.505Z,171.44
2023-05-10T07:51:11.518Z,172.47
2023-05-10T07:52:11.471Z,175.17
2023-05-10T07:53:11.441Z,177.25
2023-05-10T07:54:11.449Z,182.49
2023-05-10T07:55:11.408Z,181.63
2023-05-10T07:56:11.413Z,185.91
2023-05-10T07:57:11.443Z,186.48
2023-05-10T07:58:11.482Z,188.07
2023-05-10T07:59:12.784Z,191.01
2023-05-10T08:00:11.588Z,191.14
2023-05-10T08:01:11.652Z,195.19
2023-05-10T08:02:11.736Z,195.15
2023-05-10T08:03:11.839Z,198.06
2023-05-10T08:04:11.825Z,201.20
2023-05-10T08:05:12.202Z,200.60
2023-05-10T08:06:11.903Z,202.50
2023-05-10T08:07:11.867Z,202.63
2023-05-10T08:08:11.867Z,203.13
2023-05-10T08:09:11.865Z,204.26
2023-05-10T08:10:11.828Z,205.44
2023-05-10T08:11:11.794Z,208.18
2023-05-10T08:12:11.776Z,210.89
2023-05-10T08:13:11.737Z,210.97
2023-05-10T08:14:11.732Z,211.32
2023-05-10T08:15:11.735Z,212.06
2023-05-10T08:16:11.729Z,213.64
2023-05-10T08:17:11.730Z,216.78
2023-05-10T08:18:11.731Z,217.48
2023-05-10T08:19:11.785Z,219.70
2023-05-10T08:20:11.703Z,218.23
2023-05-10T08:21:11.632Z,218.34
2023-05-10T08:22:11.631Z,218.42
2023-05-10T08:23:11.610Z,219.20
2023-05-10T08:24:11.598Z,220.64
2023-05-10T08:25:11.576Z,222.60
2023-05-10T08:26:11.599Z,222.88
2023-05-10T08:27:11.599Z,224.31
2023-05-10T08:28:12.037Z,224.47
2023-05-10T08:29:11.580Z,224.70
2023-05-10T08:30:11.619Z,225.32
2023-05-10T08:31:11.578Z,225.50
2023-05-10T08:32:11.463Z,225.72
2023-05-10T08:33:11.423Z,225.25
2023-05-10T08:34:11.402Z,225.33
2023-05-10T08:35:11.411Z,225.32
2023-05-10T08:36:11.402Z,220.22
2023-05-10T08:37:11.359Z,218.41
2023-05-10T08:38:11.341Z,208.48
2023-05-10T08:39:22.917Z,207.18
2023-05-10T08:40:12.411Z,206.75
2023-05-10T08:41:11.314Z,201.65
2023-05-10T08:42:11.347Z,196.05
2023-05-10T08:43:11.316Z,183.72
2023-05-10T08:44:11.264Z,179.53
2023-05-10T08:45:11.327Z,174.86
2023-05-10T08:46:11.222Z,164.58
2023-05-10T08:47:11.293Z,164.88
2023-05-10T08:48:11.301Z,166.26
2023-05-10T08:49:11.190Z,168.36
2023-05-10T08:50:11.229Z,171.01
2023-05-10T08:51:11.154Z,176.04
2023-05-10T08:52:11.167Z,177.83
2023-05-10T08:53:11.141Z,165.99
2023-05-10T08:54:11.140Z,154.27
2023-05-10T08:55:11.196Z,151.85
2023-05-10T08:56:11.253Z,144.90
2023-05-10T08:57:11.326Z,138.04
2023-05-10T08:58:11.343Z,135.57
2023-05-10T08:59:11.346Z,131.40
2023-05-10T09:00:11.368Z,131.24
2023-05-10T09:01:11.453Z,138.01
2023-05-10T09:02:11.386Z,140.09
2023-05-10T09:03:11.457Z,140.83
2023-05-10T09:04:11.487Z,140.13
2023-05-10T09:05:11.491Z,140.18
2023-05-10T09:06:11.428Z,138.40
2023-05-10T09:07:11.436Z,135.09
2023-05-10T09:08:11.508Z,135.57
2023-05-10T09:09:11.486Z,134.51
2023-05-10T09:10:11.455Z,132.96
2023-05-10T09:11:11.512Z,131.62
2023-05-10T09:12:11.631Z,131.08
2023-05-10T09:13:11.650Z,129.66
2023-05-10T09:14:11.693Z,128.77
2023-05-10T09:15:11.781Z,128.40
2023-05-10T09:16:21.163Z,125.05
2023-05-10T09:17:12.918Z,125.12
2023-05-10T09:18:11.892Z,125.13
2023-05-10T09:19:11.899Z,123.48
2023-05-10T09:20:11.795Z,120.52
2023-05-10T09:21:11.834Z,117.61
2023-05-10T09:22:11.800Z,115.28
2023-05-10T09:23:11.762Z,115.40
2023-05-10T09:24:11.766Z,115.91
2023-05-10T09:25:11.781Z,113.73
2023-05-10T09:26:11.808Z,111.90
2023-05-10T09:27:11.934Z,111.60
2023-05-10T09:28:11.969Z,110.49
2023-05-10T09:29:11.911Z,108.27
2023-05-10T09:30:11.975Z,103.96
2023-05-10T09:31:12.063Z,105.11
2023-05-10T09:32:13.750Z,100.84
2023-05-10T09:33:12.078Z,104.54
2023-05-10T09:34:12.090Z,102.30
2023-05-10T09:35:12.135Z,77.33
2023-05-10T09:36:12.209Z,72.10
2023-05-10T09:37:12.141Z,71.03
2023-05-10T09:38:12.175Z,76.99
2023-05-10T09:39:12.207Z,80.70
2023-05-10T09:40:12.258Z,84.70
2023-05-10T09:41:12.313Z,96.95
2023-05-10T09:42:12.288Z,97.08
2023-05-10T09:43:12.280Z,98.64
2023-05-10T09:44:12.536Z,101.52
2023-05-10T09:45:12.243Z,107.97
2023-05-10T09:46:12.354Z,119.57
2023-05-10T09:47:12.241Z,124.68
2023-05-10T09:48:12.309Z,131.81
2023-05-10T09:49:12.183Z,132.65
2023-05-10T09:50:12.266Z,140.57
2023-05-10T09:51:12.264Z,143.80
2023-05-10T09:52:12.324Z,144.99
2023-05-10T09:53:12.375Z,149.34
2023-05-10T09:54:12.472Z,152.13
2023-05-10T09:55:12.522Z,157.22
2023-05-10T09:56:12.518Z,160.55
2023-05-10T09:57:12.584Z,164.87
2023-05-10T09:58:12.616Z,169.73
2023-05-10T09:59:12.680Z,170.94
2023-05-10T10:00:12.692Z,172.47
2023-05-10T10:01:12.775Z,174.75
2023-05-10T10:02:12.817Z,178.96
2023-05-10T10:03:12.891Z,182.01
2023-05-10T10:04:12.967Z,181.76
2023-05-10T10:05:12.976Z,183.25
2023-05-10T10:06:26.470Z,185.66
2023-05-10T10:07:13.925Z,185.84
2023-05-10T10:08:12.919Z,186.39
2023-05-10T10:09:12.935Z,187.64
2023-05-10T10:10:12.876Z,191.70
2023-05-10T10:11:12.869Z,197.81
2023-05-10T10:12:12.873Z,202.58
2023-05-10T10:13:12.842Z,204.37
2023-05-10T10:14:12.850Z,205.35
2023-05-10T10:15:14.070Z,209.12
2023-05-10T10:16:14.286Z,210.83
2023-05-10T10:17:12.781Z,214.13
2023-05-10T10:18:12.779Z,213.32
2023-05-10T10:19:12.749Z,213.72
2023-05-10T10:20:12.768Z,216.07
2023-05-10T10:21:12.736Z,215.65
2023-05-10T10:22:12.765Z,213.64
2023-05-10T10:23:13.191Z,215.27
2023-05-10T10:24:12.689Z,214.01
2023-05-10T10:25:12.653Z,214.56
2023-05-10T10:26:12.728Z,215.97
2023-05-10T10:27:12.660Z,217.44
2023-05-10T10:28:12.696Z,218.71
2023-05-10T10:29:12.667Z,219.02
2023-05-10T10:30:12.602Z,218.86
2023-05-10T10:31:12.638Z,221.11
2023-05-10T10:32:12.572Z,220.90
2023-05-10T10:33:20.569Z,217.53
2023-05-10T10:34:13.533Z,217.74
2023-05-10T10:35:12.507Z,218.00
2023-05-10T10:36:12.520Z,217.60
2023-05-10T10:37:12.505Z,208.30
2023-05-10T10:38:12.641Z,209.43
2023-05-10T10:39:12.451Z,209.27
2023-05-10T10:40:12.412Z,211.50
2023-05-10T10:41:12.444Z,212.75
2023-05-10T10:42:12.427Z,209.45
2023-05-10T10:43:12.414Z,208.13
2023-05-10T10:44:12.383Z,203.41
2023-05-10T10:45:12.419Z,195.46
2023-05-10T10:46:12.506Z,189.48
2023-05-10T10:47:12.662Z,189.76
2023-05-10T10:48:12.530Z,185.63
2023-05-10T10:49:12.602Z,167.34
2023-05-10T10:50:12.615Z,154.17
2023-05-10T10:51:12.963Z,137.17
2023-05-10T10:52:12.796Z,126.12
2023-05-10T10:53:12.816Z,117.61
2023-05-10T10:54:12.820Z,103.60
2023-05-10T10:55:12.868Z,95.76
2023-05-10T10:56:12.853Z,95.84
2023-05-10T10:57:12.856Z,92.05
2023-05-10T10:58:12.822Z,81.14
2023-05-10T10:59:12.801Z,77.45
2023-05-10T11:00:12.787Z,72.41
2023-05-10T11:01:12.864Z,70.66
2023-05-10T11:02:13.712Z,63.25
2023-05-10T11:03:12.791Z,56.39
2023-05-10T11:04:12.766Z,53.05
2023-05-10T11:05:12.727Z,51.25
2023-05-10T11:06:12.714Z,46.43
2023-05-10T11:07:12.783Z,43.73
2023-05-10T11:08:12.669Z,49.64
2023-05-10T11:09:12.682Z,57.92
2023-05-10T11:10:12.652Z,58.21
2023-05-10T11:11:12.643Z,60.98
2023-05-10T11:12:12.623Z,69.57
2023-05-10T11:13:12.614Z,89.96
2023-05-10T11:14:12.682Z,116.81
2023-05-10T11:15:13.619Z,124.12
2023-05-10T11:16:12.657Z,129.52
2023-05-10T11:17:12.635Z,132.59
2023-05-10T11:18:12.576Z,135.65
2023-05-10T11:19:12.573Z,135.91
2023-05-10T11:20:12.588Z,136.93
2023-05-10T11:21:14.249Z,140.22
2023-05-10T11:22:12.485Z,145.85
2023-05-10T11:23:12.517Z,154.53
2023-05-10T11:24:12.488Z,158.36
2023-05-10T11:25:13.220Z,158.58
2023-05-10T11:26:12.533Z,160.02
2023-05-10T11:27:12.461Z,161.96
2023-05-10T11:28:12.483Z,165.33
2023-05-10T11:29:12.427Z,169.60
2023-05-10T11:30:12.409Z,172.57
2023-05-10T11:31:12.476Z,175.90
2023-05-10T11:32:12.380Z,173.47
2023-05-10T11:33:12.366Z,176.52
2023-05-10T11:34:12.371Z,176.21
2023-05-10T11:35:12.337Z,174.99
2023-05-10T11:36:12.347Z,177.14
2023-05-10T11:37:12.353Z,176.75
2023-05-10T11:38:12.328Z,178.93
2023-05-10T11:39:12.336Z,175.34
2023-05-10T11:40:12.345Z,174.96
2023-05-10T11:41:12.312Z,175.66
2023-05-10T11:42:12.257Z,175.37
2023-05-10T11:43:12.229Z,176.33
2023-05-10T11:44:12.217Z,175.85
2023-05-10T11:45:12.203Z,174.62
2023-05-10T11:46:12.220Z,176.21
2023-05-10T11:47:12.156Z,176.33
2023-05-10T11:48:12.204Z,174.53
2023-05-10T11:49:12.141Z,175.66
2023-05-10T11:50:12.159Z,173.74
2023-05-10T11:51:12.127Z,174.60
2023-05-10T11:52:12.095Z,174.03
2023-05-10T11:53:12.135Z,175.18
2023-05-10T11:54:12.122Z,171.68
2023-05-10T11:55:12.064Z,176.29
2023-05-10T11:56:12.143Z,173.47
2023-05-10T11:57:12.046Z,173.07
2023-05-10T11:58:12.025Z,172.03
2023-05-10T11:59:12.016Z,170.85
2023-05-10T12:00:12.002Z,170.69
2023-05-10T12:01:11.990Z,170.61
2023-05-10T12:02:11.972Z,171.38
2023-05-10T12:03:12.008Z,172.65
2023-05-10T12:04:12.018Z,166.18
2023-05-10T12:05:11.996Z,168.18
2023-05-10T12:06:11.891Z,169.21
2023-05-10T12:07:11.873Z,168.23
2023-05-10T12:08:11.881Z,168.20
2023-05-10T12:09:12.758Z,167.16
2023-05-10T12:10:11.865Z,165.60
2023-05-10T12:11:12.045Z,165.73
2023-05-10T12:12:11.870Z,165.48
2023-05-10T12:13:11.850Z,168.17
2023-05-10T12:14:11.848Z,166.60
2023-05-10T12:15:11.846Z,164.24
2023-05-10T12:16:11.874Z,162.39
2023-05-10T12:17:11.853Z,163.26
2023-05-10T12:18:11.877Z,161.62
2023-05-10T12:19:11.951Z,162.91
2023-05-10T12:20:11.845Z,164.30
2023-05-10T12:21:11.851Z,161.89
2023-05-10T12:22:11.984Z,162.99
2023-05-10T12:23:11.896Z,159.22
2023-05-10T12:24:11.861Z,159.19
2023-05-10T12:25:11.934Z,159.10
2023-05-10T12:26:11.918Z,158.54
2023-05-10T12:27:11.859Z,159.21
2023-05-10T12:28:11.898Z,158.48
2023-05-10T12:29:11.880Z,156.48
2023-05-10T12:30:11.890Z,154.89
2023-05-10T12:31:11.914Z,156.20
2023-05-10T12:32:12.144Z,158.25
2023-05-10T12:33:11.955Z,158.31
2023-05-10T12:34:11.888Z,153.18
2023-05-10T12:35:11.856Z,158.26
2023-05-10T12:36:11.840Z,154.12
2023-05-10T12:37:11.824Z,156.83
2023-05-10T12:38:11.818Z,152.37
2023-05-10T12:39:11.837Z,152.08
2023-05-10T12:40:11.869Z,154.93
2023-05-10T12:41:11.854Z,150.42
2023-05-10T12:42:11.786Z,151.11